createdAt,value
2022-08-05T00:00:26.032Z,56.25
2022-08-05T00:04:23.115Z,56.08
2022-08-05T00:08:35.244Z,56.70
2022-08-05T00:12:33.122Z,56.46
2022-08-05T00:16:53.140Z,56.54
2022-08-05T00:20:51.987Z,56.74
2022-08-05T00:24:55.159Z,57.32
2022-08-05T00:28:52.657Z,57.80
2022-08-05T00:32:49.944Z,57.51
2022-08-05T00:37:09.765Z,58.13
2022-08-05T00:41:07.504Z,58.13
2022-08-05T00:45:11.536Z,58.33
2022-08-05T00:49:08.922Z,58.95
2022-08-05T00:54:00.618Z,59.11
2022-08-05T00:57:38.092Z,58.71
2022-08-05T01:01:42.842Z,58.52
2022-08-05T01:05:46.327Z,58.72
2022-08-05T01:09:43.900Z,58.27
2022-08-05T01:14:09.713Z,58.57
2022-08-05T01:18:15.858Z,58.99
2022-08-05T01:22:41.229Z,59.69
2022-08-05T01:26:56.689Z,60.01
2022-08-05T01:31:15.154Z,60.42
2022-08-05T01:35:51.132Z,60.27
2022-08-05T01:39:47.999Z,60.29
2022-08-05T01:43:47.012Z,60.44
2022-08-05T01:47:49.233Z,61.12
2022-08-05T01:51:59.023Z,60.44
2022-08-05T01:56:04.500Z,60.27
2022-08-05T02:00:05.084Z,61.17
2022-08-05T02:04:11.776Z,61.13
2022-08-05T02:08:08.991Z,61.89
2022-08-05T02:12:58.832Z,61.97
2022-08-05T02:17:29.931Z,61.45
2022-08-05T02:21:43.057Z,61.73
2022-08-05T02:25:50.257Z,61.70
2022-08-05T02:29:58.615Z,61.68
2022-08-05T02:34:10.116Z,61.63
2022-08-05T02:38:10.399Z,61.52
2022-08-05T02:42:11.511Z,61.42
2022-08-05T02:46:28.410Z,61.85
2022-08-05T02:50:27.995Z,61.26
2022-08-05T02:54:35.999Z,62.26
2022-08-05T02:58:37.251Z,62.12
2022-08-05T03:02:45.265Z,62.75
2022-08-05T03:06:56.031Z,62.95
2022-08-05T03:11:53.470Z,62.98
2022-08-05T03:15:13.193Z,63.38
2022-08-05T03:19:17.143Z,63.76
2022-08-05T03:23:28.410Z,64.24
2022-08-05T03:27:29.514Z,63.32
2022-08-05T03:31:56.228Z,63.51
2022-08-05T03:35:57.328Z,63.40
2022-08-05T03:40:01.920Z,63.11
2022-08-05T03:44:11.560Z,63.15
2022-08-05T03:48:09.161Z,63.45
2022-08-05T03:52:49.192Z,63.35
2022-08-05T03:56:42.194Z,63.62
2022-08-05T04:00:42.020Z,64.37
2022-08-05T04:04:43.434Z,64.35
2022-08-05T04:08:43.897Z,64.17
2022-08-05T04:12:46.339Z,63.85
2022-08-05T04:16:44.666Z,63.97
2022-08-05T04:20:42.129Z,64.15
2022-08-05T04:24:52.266Z,64.44
2022-08-05T04:28:51.291Z,64.47
2022-08-05T04:32:49.035Z,65.09
2022-08-05T04:36:50.032Z,65.31
2022-08-05T04:40:50.729Z,65.30
2022-08-05T04:44:48.033Z,65.01
2022-08-05T04:48:45.088Z,64.34
2022-08-05T04:52:43.099Z,63.74
2022-08-05T04:56:41.889Z,63.52
2022-08-05T05:00:41.852Z,63.69
2022-08-05T05:04:47.857Z,63.84
2022-08-05T05:08:50.004Z,63.10
2022-08-05T05:12:47.211Z,63.16
2022-08-05T05:16:47.841Z,63.15
2022-08-05T05:20:47.947Z,63.07
2022-08-05T05:24:57.318Z,62.47
2022-08-05T05:28:57.032Z,61.52
2022-08-05T05:32:54.123Z,60.76
2022-08-05T05:36:51.810Z,59.22
2022-08-05T05:40:51.237Z,59.28
2022-08-05T05:44:48.609Z,58.98
2022-08-05T05:48:47.809Z,58.34
2022-08-05T05:52:47.410Z,58.33
2022-08-05T05:56:44.767Z,57.60
2022-08-05T06:00:45.760Z,57.60
2022-08-05T06:04:43.619Z,56.58
2022-08-05T06:08:49.123Z,57.21
2022-08-05T06:12:46.460Z,55.76
2022-08-05T06:16:44.224Z,55.02
2022-08-05T06:20:43.614Z,54.85
2022-08-05T06:24:46.688Z,53.07
2022-08-05T06:28:45.509Z,53.26
2022-08-05T06:32:43.992Z,52.30
2022-08-05T06:36:56.710Z,52.26
2022-08-05T06:40:55.306Z,51.42
2022-08-05T06:44:52.335Z,51.38
2022-08-05T06:48:58.671Z,49.71
2022-08-05T06:52:58.483Z,48.02
2022-08-05T06:57:13.860Z,46.83
2022-08-05T07:01:13.340Z,46.00
2022-08-05T07:05:18.482Z,45.00
2022-08-05T07:09:16.205Z,44.81
2022-08-05T07:13:56.950Z,43.93
2022-08-05T07:17:57.299Z,44.31
2022-08-05T07:22:02.782Z,44.68
2022-08-05T07:25:59.799Z,44.99
2022-08-05T07:30:28.053Z,44.92
2022-08-05T07:34:21.195Z,45.01
2022-08-05T07:38:32.924Z,44.97
2022-08-05T07:42:33.999Z,45.19
2022-08-05T07:46:33.780Z,45.13
2022-08-05T07:50:32.521Z,45.42
2022-08-05T07:54:33.563Z,45.28
2022-08-05T07:58:57.786Z,44.85
2022-08-05T08:03:13.737Z,43.73
2022-08-05T08:07:09.743Z,42.66
2022-08-05T08:11:08.836Z,41.45
2022-08-05T08:15:15.063Z,39.51
2022-08-05T08:20:10.135Z,37.55
2022-08-05T08:24:03.591Z,36.89
2022-08-05T08:27:47.793Z,36.58
2022-08-05T08:31:48.669Z,35.05
2022-08-05T08:35:53.066Z,33.40
2022-08-05T08:40:01.330Z,32.53
2022-08-05T08:45:24.265Z,31.42
2022-08-05T08:48:36.173Z,31.20
2022-08-05T08:52:39.604Z,32.72
2022-08-05T08:56:47.598Z,33.56
2022-08-05T09:00:48.673Z,34.04
2022-08-05T09:04:58.127Z,33.47
2022-08-05T09:09:04.384Z,34.82
2022-08-05T09:13:05.163Z,33.55
2022-08-05T09:17:40.526Z,34.02
2022-08-05T09:22:22.291Z,34.70
2022-08-05T09:26:01.504Z,34.82
2022-08-05T09:30:06.311Z,35.34
2022-08-05T09:34:10.320Z,35.62
2022-08-05T09:38:16.961Z,35.34
2022-08-05T09:42:23.930Z,33.30
2022-08-05T09:46:30.006Z,31.51
2022-08-05T09:50:45.186Z,29.87
2022-08-05T09:55:06.171Z,29.72
2022-08-05T09:59:17.580Z,29.24
2022-08-05T10:03:14.631Z,28.48
2022-08-05T10:07:25.043Z,28.71
2022-08-05T10:11:35.310Z,29.22
2022-08-05T10:15:36.760Z,28.62
2022-08-05T10:20:04.225Z,28.73
2022-08-05T10:23:59.252Z,28.33
2022-08-05T10:28:09.633Z,27.27
2022-08-05T10:32:54.149Z,26.78
2022-08-05T10:36:31.235Z,25.52
2022-08-05T10:40:46.385Z,25.96
2022-08-05T10:44:47.539Z,26.05
2022-08-05T10:48:56.933Z,26.14
2022-08-05T10:52:59.990Z,25.63
2022-08-05T10:56:57.290Z,27.22
2022-08-05T11:01:00.623Z,27.90
2022-08-05T11:05:04.804Z,28.87
2022-08-05T11:09:32.271Z,31.02
2022-08-05T11:13:55.075Z,32.63
2022-08-05T11:18:14.424Z,33.40
2022-08-05T11:22:49.892Z,33.84
2022-08-05T11:26:49.704Z,34.67
2022-08-05T11:30:58.236Z,34.34
2022-08-05T11:34:57.635Z,31.60
2022-08-05T11:38:57.750Z,28.28
2022-08-05T11:42:55.224Z,25.17
2022-08-05T11:46:58.113Z,24.32
2022-08-05T11:51:07.508Z,23.25
2022-08-05T11:55:10.592Z,22.69
2022-08-05T11:59:13.693Z,22.39
2022-08-05T12:03:28.965Z,23.35
2022-08-05T12:08:08.296Z,23.93
2022-08-05T12:11:53.655Z,22.89
2022-08-05T12:15:50.745Z,22.79
2022-08-05T12:20:25.340Z,24.01
2022-08-05T12:24:19.768Z,23.58
2022-08-05T12:28:37.902Z,22.74
2022-08-05T12:32:43.194Z,22.61
2022-08-05T12:36:48.513Z,21.25
2022-08-05T12:40:45.513Z,21.58
2022-08-05T12:44:44.922Z,21.76
2022-08-05T12:48:41.977Z,22.20
2022-08-05T12:52:42.271Z,22.85
2022-08-05T12:56:43.327Z,21.80
2022-08-05T13:02:00.355Z,20.60
2022-08-05T13:05:07.147Z,20.79
2022-08-05T13:09:13.878Z,18.74
2022-08-05T13:13:11.032Z,20.24
2022-08-05T13:17:41.212Z,21.61
2022-08-05T13:21:48.047Z,21.76
2022-08-05T13:25:52.206Z,21.38
2022-08-05T13:30:31.555Z,20.69
2022-08-05T13:34:23.188Z,20.92
2022-08-05T13:38:34.190Z,21.19
2022-08-05T13:42:33.645Z,19.77
2022-08-05T13:46:43.778Z,18.95
2022-08-05T13:50:48.077Z,18.95
2022-08-05T13:54:53.422Z,18.44
2022-08-05T13:58:53.084Z,19.67
2022-08-05T14:02:50.870Z,20.22
2022-08-05T14:06:48.146Z,19.42
2022-08-05T14:11:03.060Z,19.29
2022-08-05T14:15:00.622Z,19.14
2022-08-05T14:19:04.438Z,18.83
2022-08-05T14:23:01.778Z,19.30
2022-08-05T14:27:17.757Z,19.81
2022-08-05T14:31:17.256Z,20.04
2022-08-05T14:35:37.336Z,20.86
2022-08-05T14:39:49.451Z,21.12
2022-08-05T14:44:01.569Z,20.09
2022-08-05T14:48:05.463Z,19.17
2022-08-05T14:52:05.580Z,18.27
2022-08-05T14:56:07.440Z,19.02
2022-08-05T15:00:06.563Z,20.61
2022-08-05T15:04:06.678Z,21.25
2022-08-05T15:08:11.575Z,20.79
2022-08-05T15:12:16.929Z,19.93
2022-08-05T15:16:14.312Z,19.65
2022-08-05T15:20:15.606Z,19.05
2022-08-05T15:24:15.188Z,18.42
2022-08-05T15:28:15.774Z,17.54
2022-08-05T15:32:13.073Z,18.74
2022-08-05T15:36:17.629Z,19.50
2022-08-05T15:41:00.502Z,20.68
2022-08-05T15:44:42.297Z,20.49
2022-08-05T15:48:39.312Z,21.09
2022-08-05T15:52:53.676Z,21.75
2022-08-05T15:56:52.224Z,22.82
2022-08-05T16:00:57.038Z,22.96
2022-08-05T16:05:01.776Z,21.86
2022-08-05T16:08:59.304Z,22.20
2022-08-05T16:12:56.391Z,21.29
2022-08-05T16:16:53.787Z,21.41
2022-08-05T16:20:50.770Z,21.52
2022-08-05T16:24:51.804Z,22.14
2022-08-05T16:28:49.658Z,22.90
2022-08-05T16:32:49.163Z,23.04
2022-08-05T16:36:47.231Z,22.88
2022-08-05T16:40:47.727Z,22.69
2022-08-05T16:44:54.233Z,23.35
2022-08-05T16:48:55.546Z,24.73
2022-08-05T16:52:52.852Z,26.03
2022-08-05T16:56:53.670Z,26.81
2022-08-05T17:00:50.867Z,27.58
2022-08-05T17:04:48.007Z,27.91
2022-08-05T17:08:53.190Z,28.65
2022-08-05T17:12:52.432Z,27.46
2022-08-05T17:16:49.523Z,27.02
2022-08-05T17:20:50.962Z,26.66
2022-08-05T17:24:57.651Z,26.92
2022-08-05T17:28:55.406Z,27.43
2022-08-05T17:32:53.089Z,28.19
2022-08-05T17:36:50.100Z,28.14
2022-08-05T17:40:47.564Z,28.94
2022-08-05T17:44:50.382Z,29.74
2022-08-05T17:48:48.390Z,30.56
2022-08-05T17:52:52.835Z,30.95
2022-08-05T17:56:51.394Z,31.83
2022-08-05T18:00:50.873Z,32.95
2022-08-05T18:04:51.297Z,33.30
2022-08-05T18:08:52.904Z,34.73
2022-08-05T18:12:50.228Z,35.64
2022-08-05T18:16:51.970Z,36.99
2022-08-05T18:20:49.551Z,37.74
2022-08-05T18:24:52.207Z,38.35
2022-08-05T18:28:49.527Z,39.28
2022-08-05T18:32:53.169Z,40.04
2022-08-05T18:36:50.889Z,40.42
2022-08-05T18:41:56.590Z,41.30
2022-08-05T18:45:09.646Z,41.91
2022-08-05T18:49:30.346Z,42.58
2022-08-05T18:53:29.574Z,43.49
2022-08-05T18:57:43.308Z,43.35
2022-08-05T19:01:57.033Z,43.90
2022-08-05T19:06:12.057Z,44.05
2022-08-05T19:10:12.775Z,44.77
2022-08-05T19:14:52.291Z,44.54
2022-08-05T19:18:28.745Z,44.73
2022-08-05T19:22:27.752Z,45.19
2022-08-05T19:26:24.955Z,45.37
2022-08-05T19:30:22.295Z,45.26
2022-08-05T19:34:20.924Z,45.55
2022-08-05T19:38:26.460Z,45.69
2022-08-05T19:42:26.238Z,46.02
2022-08-05T19:46:34.711Z,46.13
2022-08-05T19:50:31.844Z,46.21
2022-08-05T19:54:31.941Z,46.54
2022-08-05T19:58:30.095Z,46.83
2022-08-05T20:02:31.315Z,46.77
2022-08-05T20:06:29.640Z,47.49
2022-08-05T20:10:26.772Z,47.82
2022-08-05T20:14:27.151Z,48.58
2022-08-05T20:18:33.424Z,48.76
2022-08-05T20:22:33.323Z,49.05
2022-08-05T20:26:31.340Z,49.93
2022-08-05T20:30:30.251Z,50.58
2022-08-05T20:34:27.301Z,51.16
2022-08-05T20:38:27.691Z,51.40
2022-08-05T20:42:26.072Z,52.48
2022-08-05T20:46:25.608Z,56.09
2022-08-05T20:50:23.110Z,58.40
2022-08-05T20:54:20.138Z,60.81
2022-08-05T21:03:07.258Z,63.17
2022-08-05T21:07:05.158Z,63.74
2022-08-05T21:11:09.194Z,64.58
2022-08-05T21:15:08.385Z,65.50
2022-08-05T21:19:06.391Z,67.18
2022-08-05T21:23:04.836Z,69.19
2022-08-05T21:27:02.316Z,69.41
2022-08-05T21:30:59.432Z,70.23
2022-08-05T21:35:17.563Z,70.84
2022-08-05T21:39:17.057Z,71.15
2022-08-05T21:43:25.060Z,72.10
2022-08-05T21:47:55.038Z,72.83
2022-08-05T21:52:28.433Z,73.41
2022-08-05T21:56:35.194Z,73.81
2022-08-05T22:01:00.742Z,73.72
2022-08-05T22:05:20.872Z,73.34
2022-08-05T22:09:24.336Z,72.95
2022-08-05T22:14:34.437Z,72.57
2022-08-05T22:17:59.851Z,71.27
2022-08-05T22:21:57.319Z,71.34
2022-08-05T22:26:15.096Z,71.48
2022-08-05T22:30:17.145Z,71.73
2022-08-05T22:34:25.462Z,71.68
2022-08-05T22:38:28.527Z,73.90
2022-08-05T22:42:26.413Z,77.61
2022-08-05T22:46:27.522Z,86.74
2022-08-05T22:50:28.259Z,90.02
2022-08-05T22:54:25.380Z,93.85
2022-08-05T22:58:28.335Z,96.39
2022-08-05T23:02:29.508Z,100.00
2022-08-05T23:06:26.961Z,100.00
2022-08-05T23:10:25.872Z,100.00
2022-08-05T23:14:22.944Z,100.00
2022-08-05T23:18:29.459Z,100.00
2022-08-05T23:22:29.443Z,98.62
2022-08-05T23:26:27.993Z,100.00
2022-08-05T23:30:27.131Z,100.00
2022-08-05T23:34:26.904Z,100.00
2022-08-05T23:38:26.721Z,100.00
2022-08-05T23:42:29.286Z,100.00
2022-08-05T23:46:26.757Z,100.00
2022-08-05T23:50:23.935Z,100.00
2022-08-05T23:54:30.117Z,100.00
2022-08-05T23:58:32.594Z,100.00
